Time;durP1;ratioP1;P1;durP2;ratioP2;P2;SDS_P1;SDS_P2;PMS_P1;PMS_P2;Temp;Humidity;BMP_temperature;BMP_pressure;BME280_temperature;BME280_humidity;BME280_pressure;Samples;Min_cycle;Max_cycle;Signal;HPM_P1;HPM_P2
2023/10/12 00:01:25;;;;;;;7.38;2.20;;;20.80;99.90;;;;;;5053004;28;20041;-64
2023/10/12 00:03:55;;;;;;;6.40;2.10;;;20.80;99.90;;;;;;5039343;28;20089;-65
2023/10/12 00:06:23;;;;;;;6.75;2.45;;;20.90;99.90;;;;;;5052581;28;20057;-65
2023/10/12 00:08:49;;;;;;;7.18;2.50;;;20.80;99.90;;;;;;5039755;28;20120;-65
2023/10/12 00:11:20;;;;;;;5.45;1.85;;;20.80;99.90;;;;;;5049720;28;20120;-64
2023/10/12 00:13:47;;;;;;;6.63;2.10;;;20.60;99.90;;;;;;5043844;28;20037;-64
2023/10/12 00:16:18;;;;;;;7.00;2.30;;;20.80;99.90;;;;;;5043378;28;20386;-64
2023/10/12 00:18:46;;;;;;;6.03;2.03;;;20.90;99.90;;;;;;5040748;28;20083;-65
2023/10/12 00:21:18;;;;;;;5.72;2.03;;;20.80;99.90;;;;;;5029580;28;20048;-65
2023/10/12 00:23:44;;;;;;;6.07;2.15;;;20.90;99.90;;;;;;5033222;28;20399;-65
2023/10/12 00:26:10;;;;;;;5.47;2.28;;;20.80;99.90;;;;;;5043347;28;20061;-65
2023/10/12 00:28:39;;;;;;;6.28;2.00;;;20.80;99.90;;;;;;5041635;28;20056;-64
2023/10/12 00:31:17;;;;;;;6.97;2.20;;;20.90;99.90;;;;;;5018297;28;20045;-64
2023/10/12 00:33:43;;;;;;;7.40;2.25;;;20.80;99.90;;;;;;5015751;28;20045;-65
2023/10/12 00:36:21;;;;;;;5.85;2.05;;;20.70;99.90;;;;;;5037874;28;20056;-65
2023/10/12 00:38:48;;;;;;;6.13;2.20;;;20.70;99.60;;;;;;5041536;28;20049;-65
2023/10/12 00:41:14;;;;;;;5.88;2.03;;;21.00;99.90;;;;;;5047835;28;20128;-65
2023/10/12 00:44:08;;;;;;;5.25;1.90;;;20.80;99.90;;;;;;5045523;28;20045;-65
2023/10/12 00:51:51;;;;;;;6.32;2.17;;;20.80;99.50;;;;;;5051287;28;20052;-64
2023/10/12 00:54:27;;;;;;;5.90;2.08;;;20.70;99.90;;;;;;5022120;28;20054;-64
2023/10/12 00:56:57;;;;;;;6.75;2.10;;;20.60;99.30;;;;;;5059604;28;20107;-64
2023/10/12 00:59:24;;;;;;;9.07;2.38;;;20.80;99.90;;;;;;5050754;28;20048;-64
2023/10/12 01:01:49;;;;;;;5.60;2.20;;;20.60;99.90;;;;;;5051018;28;20120;-65
2023/10/12 01:04:16;;;;;;;6.78;2.20;;;20.60;99.90;;;;;;5027834;28;20516;-65
2023/10/12 01:06:47;;;;;;;5.85;2.40;;;20.60;99.90;;;;;;5043387;28;20427;-64
2023/10/12 01:09:19;;;;;;;5.78;1.95;;;20.70;99.90;;;;;;5042908;28;20103;-64
2023/10/12 01:11:52;;;;;;;5.80;2.10;;;20.70;99.90;;;;;;5037619;28;20419;-65
2023/10/12 01:14:18;;;;;;;9.32;2.60;;;20.60;99.90;;;;;;5048366;28;20119;-65
2023/10/12 01:19:10;;;;;;;7.55;2.50;;;;;;;;;;5037127;28;20102;-64
2023/10/12 01:21:36;;;;;;;6.20;2.20;;;20.60;99.90;;;;;;5050031;28;20479;-64
2023/10/12 01:24:04;;;;;;;6.70;1.70;;;20.90;99.90;;;;;;5040985;28;20088;-65
2023/10/12 01:26:33;;;;;;;6.13;2.28;;;20.80;99.70;;;;;;5035952;28;20041;-65
2023/10/12 01:29:00;;;;;;;5.30;1.70;;;20.80;99.90;;;;;;5047867;28;20041;-65
2023/10/12 01:31:28;;;;;;;7.15;2.17;;;;;;;;;;5047853;28;20458;-64
2023/10/12 01:33:54;;;;;;;6.82;2.10;;;;;;;;;;5037194;28;20402;-65
2023/10/12 01:36:33;;;;;;;7.63;2.17;;;20.70;99.90;;;;;;5046798;28;20437;-65
2023/10/12 01:39:12;;;;;;;6.47;2.22;;;20.60;99.70;;;;;;5039164;28;20043;-65
2023/10/12 01:41:40;;;;;;;6.32;2.17;;;20.60;99.90;;;;;;5042079;28;20044;-65
2023/10/12 01:44:10;;;;;;;5.57;2.00;;;20.80;99.60;;;;;;5052727;28;20044;-64
2023/10/12 01:46:40;;;;;;;8.40;2.20;;;20.70;99.60;;;;;;5044191;28;20073;-65
2023/10/12 01:49:07;;;;;;;7.45;2.20;;;20.70;99.90;;;;;;5054639;28;20049;-65
2023/10/12 01:51:36;;;;;;;6.20;1.80;;;20.60;99.90;;;;;;5052509;28;20052;-64
2023/10/12 01:54:05;;;;;;;5.07;1.77;;;20.60;99.90;;;;;;5037334;28;20064;-64
2023/10/12 01:56:32;;;;;;;7.00;1.90;;;20.60;99.90;;;;;;5024186;28;20511;-64
2023/10/12 01:58:58;;;;;;;6.70;2.25;;;20.80;99.60;;;;;;5038857;28;20447;-64
2023/10/12 02:01:24;;;;;;;5.82;2.08;;;20.60;99.50;;;;;;5037596;28;20083;-64
2023/10/12 02:03:54;;;;;;;4.95;1.80;;;20.60;99.90;;;;;;5051193;28;20049;-65
2023/10/12 02:06:23;;;;;;;5.90;1.88;;;20.60;99.90;;;;;;5065208;28;20451;-66
2023/10/12 02:08:52;;;;;;;7.00;1.90;;;20.60;99.90;;;;;;5046680;28;20088;-65
2023/10/12 02:13:47;;;;;;;5.25;1.95;;;20.60;99.30;;;;;;5061374;28;20052;-65
2023/10/12 02:16:22;;;;;;;7.78;2.38;;;20.60;99.90;;;;;;5028198;28;20414;-64
2023/10/12 02:18:48;;;;;;;5.90;2.10;;;20.70;99.50;;;;;;5047111;28;20056;-65
2023/10/12 02:21:20;;;;;;;5.00;1.88;;;20.70;99.40;;;;;;5052404;28;20033;-65
2023/10/12 02:23:57;;;;;;;6.20;2.10;;;20.70;99.90;;;;;;5050001;28;20049;-65
2023/10/12 02:26:30;;;;;;;5.03;1.70;;;20.50;98.90;;;;;;5052796;28;20410;-65
2023/10/12 02:29:07;;;;;;;6.32;1.70;;;20.70;99.40;;;;;;5043091;28;20049;-65
2023/10/12 02:31:34;;;;;;;7.72;2.47;;;20.60;99.30;;;;;;5033145;28;20402;-65
2023/10/12 02:34:02;;;;;;;7.28;2.50;;;20.40;99.90;;;;;;5048078;28;20057;-64
2023/10/12 02:36:28;;;;;;;5.60;1.90;;;20.50;99.70;;;;;;5040957;28;20029;-65
2023/10/12 02:38:59;;;;;;;6.85;1.90;;;20.50;99.90;;;;;;5051831;28;20114;-65
2023/10/12 02:41:25;;;;;;;7.88;1.95;;;20.50;99.90;;;;;;5051568;28;20060;-65
2023/10/12 02:43:55;;;;;;;6.03;1.73;;;20.50;99.20;;;;;;5044173;28;20052;-65
2023/10/12 02:46:25;;;;;;;6.30;2.10;;;20.60;99.90;;;;;;5034076;28;20115;-65
2023/10/12 02:48:51;;;;;;;5.32;1.80;;;20.70;99.00;;;;;;5022803;28;20055;-65
2023/10/12 02:51:22;;;;;;;6.80;2.10;;;20.60;99.20;;;;;;5051147;28;20041;-65
2023/10/12 02:53:48;;;;;;;6.53;2.15;;;20.60;99.20;;;;;;5050080;28;20061;-65
2023/10/12 02:56:17;;;;;;;5.05;2.10;;;20.50;99.90;;;;;;5043105;28;20382;-65
2023/10/12 02:58:45;;;;;;;5.93;1.75;;;;;;;;;;5047641;28;20410;-65
2023/10/12 03:01:16;;;;;;;6.72;2.10;;;20.60;99.90;;;;;;5047757;28;20063;-65
2023/10/12 03:03:48;;;;;;;8.55;1.88;;;20.60;99.90;;;;;;5033649;28;20084;-64
2023/10/12 03:06:20;;;;;;;6.55;2.17;;;20.70;99.90;;;;;;5023956;28;20467;-65
2023/10/12 03:09:02;;;;;;;;;;;20.60;99.20;;;;;;5045737;28;20128;-65
2023/10/12 03:11:31;;;;;;;7.28;2.38;;;20.40;99.90;;;;;;5049451;28;19920;-65
2023/10/12 03:14:00;;;;;;;7.75;2.10;;;20.40;99.90;;;;;;5026966;28;20052;-65
2023/10/12 03:16:33;;;;;;;4.90;1.88;;;20.60;99.90;;;;;;5015102;28;20071;-65
2023/10/12 03:19:22;;;;;;;6.18;1.80;;;20.50;99.90;;;;;;5054251;28;20127;-65
2023/10/12 03:21:52;;;;;;;5.13;1.90;;;20.40;99.90;;;;;;5052720;28;20128;-65
2023/10/12 03:24:21;;;;;;;7.03;2.05;;;20.40;98.90;;;;;;5036769;28;20053;-65
2023/10/12 03:26:49;;;;;;;5.15;2.00;;;20.40;99.90;;;;;;5034392;28;20431;-65
2023/10/12 03:31:53;;;;;;;7.10;2.28;;;20.40;99.90;;;;;;5042678;28;20135;-65
2023/10/12 03:34:53;;;;;;;7.63;2.22;;;20.50;99.90;;;;;;5044886;28;20458;-65
2023/10/12 03:37:45;;;;;;;6.10;2.38;;;20.40;99.90;;;;;;5047006;28;20049;-65
2023/10/12 03:42:57;;;;;;;5.78;2.00;;;;;;;;;;5040209;28;20414;-64
2023/10/12 03:45:33;;;;;;;8.57;1.90;;;20.50;99.90;;;;;;5038517;28;20052;-65
2023/10/12 03:48:22;;;;;;;5.88;1.92;;;20.40;99.90;;;;;;5047649;28;20049;-65
2023/10/12 03:53:45;;;;;;;6.60;2.40;;;20.60;99.90;;;;;;5044055;28;20052;-64
2023/10/12 03:56:14;;;;;;;7.05;2.20;;;20.60;99.80;;;;;;5050449;28;20045;-65
2023/10/12 03:58:47;;;;;;;7.53;2.10;;;20.30;99.80;;;;;;5037371;28;20514;-65
2023/10/12 04:03:46;;;;;;;7.72;2.08;;;20.50;98.30;;;;;;5038071;28;20187;-65
2023/10/12 04:06:22;;;;;;;6.80;2.20;;;20.50;99.90;;;;;;5050627;28;20053;-65
2023/10/12 04:08:59;;;;;;;6.57;1.77;;;20.40;99.70;;;;;;5034712;28;20092;-64
2023/10/12 04:16:45;;;;;;;7.43;1.98;;;20.40;99.70;;;;;;5042181;28;20056;-64
2023/10/12 04:19:16;;;;;;;7.82;2.65;;;20.50;99.90;;;;;;5039188;28;20049;-65
2023/10/12 04:22:15;;;;;;;7.03;2.10;;;20.30;99.60;;;;;;5036717;28;20478;-65
2023/10/12 04:24:29;;;;;;;8.40;2.20;;;;;;;;;;5040895;28;20095;-64
2023/10/12 04:29:50;;;;;;;6.07;2.35;;;20.40;99.60;;;;;;5051391;28;20053;-64
2023/10/12 04:32:27;;;;;;;6.65;1.90;;;;;;;;;;5037563;28;20132;-64
2023/10/12 04:34:54;;;;;;;6.13;2.10;;;;;;;;;;5033278;28;20067;-65
2023/10/12 04:37:26;;;;;;;7.38;2.30;;;20.40;99.60;;;;;;5039094;28;20056;-65
2023/10/12 04:40:09;;;;;;;6.05;2.10;;;20.30;99.50;;;;;;5052262;28;20120;-65
2023/10/12 04:42:44;;;;;;;7.00;2.28;;;20.40;99.50;;;;;;5050606;28;20045;-65
2023/10/12 04:45:27;;;;;;;8.25;2.13;;;20.30;99.50;;;;;;5032068;28;20053;-65
2023/10/12 04:48:06;;;;;;;6.60;2.00;;;20.40;98.70;;;;;;5034783;28;20091;-65
2023/10/12 04:51:18;;;;;;;6.85;1.90;;;20.30;99.40;;;;;;5048073;28;20315;-65
2023/10/12 04:53:35;;;;;;;5.63;1.75;;;20.50;99.50;;;;;;5023000;28;20521;-64
2023/10/12 04:56:09;;;;;;;7.30;1.70;;;20.30;98.50;;;;;;5050695;28;20092;-65
2023/10/12 04:58:36;;;;;;;5.95;1.88;;;20.30;99.60;;;;;;5043082;28;20053;-65
2023/10/12 05:01:24;;;;;;;5.50;2.00;;;20.40;99.40;;;;;;5043873;28;20045;-65
2023/10/12 05:06:46;;;;;;;6.20;2.10;;;20.30;98.00;;;;;;5045772;28;20352;-65
2023/10/12 05:09:12;;;;;;;4.85;1.83;;;20.30;99.40;;;;;;5035320;28;20483;-65
2023/10/12 05:11:39;;;;;;;8.93;2.00;;;20.30;99.70;;;;;;5042282;28;20064;-65
2023/10/12 05:14:14;;;;;;;6.47;2.00;;;20.30;99.30;;;;;;5048698;28;20071;-65
2023/10/12 05:16:43;;;;;;;5.90;1.75;;;20.20;97.90;;;;;;5050202;28;21182;-65
2023/10/12 05:19:11;;;;;;;5.43;1.70;;;20.30;99.30;;;;;;5049154;28;20052;-65
2023/10/12 05:21:37;;;;;;;6.50;2.17;;;20.30;99.30;;;;;;5028418;28;20057;-65
2023/10/12 05:24:02;;;;;;;5.53;1.90;;;20.20;98.20;;;;;;5055220;28;20444;-65
2023/10/12 05:26:30;;;;;;;5.90;1.98;;;20.40;99.30;;;;;;5044716;28;20048;-65
2023/10/12 05:29:18;;;;;;;6.15;1.77;;;20.20;99.40;;;;;;5043314;28;20518;-65
2023/10/12 05:31:49;;;;;;;4.63;1.67;;;20.20;99.20;;;;;;5040048;28;20052;-65
2023/10/12 05:34:32;;;;;;;6.65;2.05;;;;;;;;;;5038536;28;20139;-65
2023/10/12 05:37:00;;;;;;;7.13;1.80;;;20.20;99.20;;;;;;5051535;28;20144;-65
2023/10/12 05:39:27;;;;;;;6.63;2.08;;;20.20;99.30;;;;;;5057249;28;20128;-65
2023/10/12 05:41:56;;;;;;;6.78;2.22;;;20.30;99.30;;;;;;5030487;28;20152;-65
2023/10/12 05:44:26;;;;;;;7.32;2.13;;;20.20;99.40;;;;;;5036700;28;20114;-64
2023/10/12 05:46:59;;;;;;;4.55;1.80;;;20.30;99.30;;;;;;5053472;28;20052;-65
2023/10/12 05:49:25;;;;;;;6.78;1.95;;;20.30;98.20;;;;;;5044887;28;20056;-64
2023/10/12 05:51:51;;;;;;;3.45;1.42;;;20.20;99.10;;;;;;5035388;28;20088;-64
2023/10/12 05:54:20;;;;;;;6.15;1.88;;;20.20;99.20;;;;;;5046824;28;20065;-65
2023/10/12 05:56:49;;;;;;;5.95;1.83;;;20.30;97.80;;;;;;5040172;28;20083;-65
2023/10/12 05:59:15;;;;;;;4.90;2.10;;;20.20;99.20;;;;;;5047985;28;20049;-64
2023/10/12 06:01:48;;;;;;;6.20;2.13;;;20.30;99.20;;;;;;5041159;28;20118;-65
2023/10/12 06:04:15;;;;;;;5.30;2.10;;;20.30;97.80;;;;;;5033920;28;20140;-64
2023/10/12 06:06:43;;;;;;;5.15;2.10;;;20.20;97.90;;;;;;5026050;28;20072;-64
2023/10/12 06:09:35;;;;;;;6.60;1.90;;;20.10;98.30;;;;;;5045115;28;20398;-64
2023/10/12 06:11:58;;;;;;;6.82;2.00;;;20.20;98.20;;;;;;5024236;28;20057;-65
2023/10/12 06:14:24;;;;;;;6.72;2.05;;;20.20;99.00;;;;;;5034914;28;20057;-64
2023/10/12 06:16:55;;;;;;;4.85;2.00;;;20.20;99.00;;;;;;5040609;28;20053;-64
2023/10/12 06:21:51;;;;;;;5.18;1.80;;;20.10;98.90;;;;;;5044429;28;20159;-64
2023/10/12 06:24:21;;;;;;;5.53;2.08;;;20.20;98.90;;;;;;5036935;28;20037;-64
2023/10/12 06:26:47;;;;;;;7.28;2.00;;;20.10;98.80;;;;;;5050587;28;20072;-64
2023/10/12 06:29:24;;;;;;;4.60;1.50;;;20.20;98.90;;;;;;5040656;28;20053;-64
2023/10/12 06:31:54;;;;;;;4.55;1.80;;;20.20;98.80;;;;;;5026688;28;20045;-64
2023/10/12 06:34:23;;;;;;;5.50;1.80;;;20.40;97.30;;;;;;5045734;28;20355;-64
2023/10/12 06:36:57;;;;;;;8.40;1.80;;;20.20;98.80;;;;;;5042589;28;20049;-65
2023/10/12 06:46:47;;;;;;;5.38;1.52;;;20.30;98.70;;;;;;5052309;28;20434;-64
2023/10/12 06:49:22;;;;;;;7.32;2.10;;;20.30;99.20;;;;;;5036314;28;20059;-65
2023/10/12 06:51:54;;;;;;;5.60;1.73;;;20.30;98.70;;;;;;5045886;28;20037;-64
2023/10/12 07:02:30;;;;;;;5.43;1.88;;;20.50;98.50;;;;;;5035969;28;20586;-64
2023/10/12 07:05:01;;;;;;;3.67;1.60;;;20.60;98.40;;;;;;5035260;28;20044;-65
2023/10/12 07:07:29;;;;;;;7.72;2.08;;;20.60;98.40;;;;;;5046232;28;20407;-64
2023/10/12 07:12:48;;;;;;;6.13;1.83;;;20.70;98.30;;;;;;5031069;28;20132;-64
2023/10/12 07:15:23;;;;;;;5.35;1.77;;;20.90;98.30;;;;;;5021694;28;20102;-64
2023/10/12 07:17:53;;;;;;;7.65;2.13;;;20.80;98.20;;;;;;5046541;28;20072;-64
2023/10/12 07:20:27;;;;;;;6.18;2.00;;;20.60;98.30;;;;;;5020424;28;20045;-64
2023/10/12 07:22:54;;;;;;;5.70;2.00;;;20.80;98.00;;;;;;5033994;28;20053;-64
2023/10/12 07:25:23;;;;;;;4.47;1.45;;;21.10;98.00;;;;;;5040420;28;20407;-64
2023/10/12 07:27:51;;;;;;;6.25;1.77;;;;;;;;;;5046478;28;20041;-64
2023/10/12 07:30:36;;;;;;;5.97;2.00;;;21.30;98.00;;;;;;5050170;28;20052;-65
2023/10/12 07:33:05;;;;;;;5.28;1.80;;;21.50;96.50;;;;;;5043831;28;20110;-64
2023/10/12 07:35:38;;;;;;;7.03;2.30;;;21.30;97.50;;;;;;5051941;28;20049;-64
2023/10/12 07:38:26;;;;;;;5.80;2.00;;;21.40;97.40;;;;;;5038483;28;20037;-64
2023/10/12 07:40:56;;;;;;;5.57;1.80;;;21.60;97.40;;;;;;5045597;28;20053;-64
2023/10/12 07:43:25;;;;;;;6.10;1.90;;;21.50;96.30;;;;;;5042194;28;20406;-64
2023/10/12 07:45:54;;;;;;;7.88;2.03;;;21.60;96.20;;;;;;5042190;28;20088;-64
2023/10/12 07:48:39;;;;;;;5.68;1.70;;;21.60;95.70;;;;;;5050366;28;20510;-64
2023/10/12 07:51:15;;;;;;;4.80;1.92;;;21.80;95.70;;;;;;5047063;28;20051;-64
2023/10/12 07:53:45;;;;;;;5.72;1.70;;;21.80;95.30;;;;;;5044848;28;20170;-64
2023/10/12 07:56:15;;;;;;;5.65;1.77;;;22.00;95.80;;;;;;5038002;28;20087;-64
2023/10/12 07:58:58;;;;;;;6.47;2.00;;;21.80;95.60;;;;;;5036240;28;20375;-65
2023/10/12 08:03:59;;;;;;;6.35;2.05;;;22.10;95.20;;;;;;5021075;28;20449;-64
2023/10/12 08:06:42;;;;;;;5.70;2.00;;;22.00;95.10;;;;;;5039914;28;20570;-65
2023/10/12 08:11:55;;;;;;;6.45;2.38;;;22.30;94.90;;;;;;5050488;28;20442;-64
2023/10/12 08:19:42;;;;;;;7.57;1.92;;;22.30;94.60;;;;;;5045668;28;20041;-65
2023/10/12 08:22:26;;;;;;;7.38;2.15;;;22.40;94.20;;;;;;5031048;28;20068;-64
2023/10/12 08:24:58;;;;;;;6.30;2.03;;;22.30;94.00;;;;;;5035576;28;20889;-66
2023/10/12 08:27:24;;;;;;;9.13;2.37;;;22.10;95.20;;;;;;5041988;28;20045;-66
2023/10/12 08:32:29;;;;;;;6.82;2.55;;;22.30;94.40;;;;;;5044963;28;20562;-67
2023/10/12 08:37:26;;;;;;;7.53;2.40;;;22.20;93.80;;;;;;5036670;28;20061;-66
2023/10/12 08:45:08;;;;;;;6.75;2.17;;;22.10;94.20;;;;;;5007407;28;20072;-65
2023/10/12 08:52:27;;;;;;;9.02;2.78;;;22.00;94.20;;;;;;5010546;28;20114;-66
2023/10/12 08:55:03;;;;;;;6.00;2.38;;;21.90;95.10;;;;;;5043930;28;20490;-65
2023/10/12 08:57:52;;;;;;;8.27;2.60;;;21.60;93.30;;;;;;5029229;28;20235;-65
2023/10/12 09:00:25;;;;;;;7.68;2.58;;;22.10;95.20;;;;;;5047774;28;20052;-65
2023/10/12 09:02:58;;;;;;;6.80;2.25;;;21.90;93.60;;;;;;5047211;28;20634;-66
2023/10/12 09:05:28;;;;;;;6.43;2.10;;;22.00;94.20;;;;;;5004911;28;20404;-66
2023/10/12 09:10:36;;;;;;;7.18;2.60;;;21.90;93.70;;;;;;5023960;28;20122;-66
2023/10/12 09:13:02;;;;;;;5.63;2.30;;;21.90;93.90;;;;;;5030826;28;20046;-66
2023/10/12 09:15:38;;;;;;;8.00;2.75;;;21.90;95.00;;;;;;5034041;28;20124;-67
2023/10/12 09:18:09;;;;;;;9.90;2.58;;;21.90;95.10;;;;;;5045978;28;20090;-66
2023/10/12 09:20:40;;;;;;;10.50;2.58;;;21.90;93.90;;;;;;5038860;28;20053;-66
2023/10/12 09:23:13;;;;;;;11.75;3.30;;;22.10;94.00;;;;;;5034967;28;20060;-67
2023/10/12 09:28:26;;;;;;;10.82;2.95;;;21.80;93.50;;;;;;5048306;28;19928;-65
2023/10/12 09:30:53;;;;;;;12.38;2.75;;;22.30;95.20;;;;;;5046814;28;20406;-66
2023/10/12 09:36:09;;;;;;;12.85;2.90;;;21.90;93.40;;;;;;5043015;28;20092;-65
2023/10/12 09:38:38;;;;;;;12.18;2.67;;;21.60;93.80;;;;;;5048826;28;20040;-65
2023/10/12 09:41:08;;;;;;;15.57;3.00;;;22.00;93.90;;;;;;5031137;28;20049;-65
2023/10/12 09:43:38;;;;;;;22.40;3.60;;;22.20;94.00;;;;;;5049995;28;20056;-65
2023/10/12 09:46:07;;;;;;;15.05;3.30;;;22.00;94.00;;;;;;5042092;28;20060;-68
2023/10/12 09:48:38;;;;;;;22.48;3.45;;;21.90;93.90;;;;;;5054868;28;20387;-67
2023/10/12 09:51:06;;;;;;;23.80;3.60;;;22.50;94.10;;;;;;5039863;28;20041;-65
2023/10/12 09:53:57;;;;;;;11.75;2.90;;;21.90;93.30;;;;;;5035018;28;20057;-67
2023/10/12 09:56:28;;;;;;;13.35;3.08;;;22.00;92.50;;;;;;5042601;28;20124;-68
2023/10/12 10:02:27;;;;;;;13.90;2.83;;;21.70;92.50;;;;;;5046087;28;20495;-65
2023/10/12 10:07:35;;;;;;;15.02;2.70;;;21.60;92.80;;;;;;5034651;28;20064;-67
2023/10/12 10:09:54;;;;;;;10.27;2.05;;;21.50;92.90;;;;;;5036252;28;20399;-67
2023/10/12 10:12:22;;;;;;;12.73;2.78;;;21.50;92.40;;;;;;5017764;28;20045;-66
2023/10/12 10:14:57;;;;;;;13.35;2.78;;;21.40;91.70;;;;;;5058295;28;20399;-66
2023/10/12 10:17:24;;;;;;;9.55;2.83;;;21.40;91.60;;;;;;5034887;28;20088;-66
2023/10/12 10:20:17;;;;;;;9.70;3.03;;;21.40;91.50;;;;;;5025274;28;20103;-66
2023/10/12 10:22:50;;;;;;;11.40;3.03;;;21.20;92.10;;;;;;5045577;28;20453;-69
2023/10/12 10:25:18;;;;;;;10.82;2.30;;;21.20;92.00;;;;;;5049496;28;20041;-67
2023/10/12 10:27:43;;;;;;;7.30;2.70;;;21.20;91.00;;;;;;5043004;28;20077;-66
2023/10/12 10:30:28;;;;;;;7.47;2.50;;;21.40;91.10;;;;;;5045350;28;20092;-66
2023/10/12 10:33:14;;;;;;;14.27;2.92;;;21.30;92.20;;;;;;5040754;28;20041;-66
2023/10/12 10:35:57;;;;;;;11.43;2.47;;;21.00;91.10;;;;;;5041410;28;20398;-66
2023/10/12 10:38:32;;;;;;;12.13;2.80;;;21.40;90.80;;;;;;5053680;28;20075;-66
2023/10/12 10:41:18;;;;;;;9.75;2.67;;;21.10;91.00;;;;;;5049830;28;20409;-67
2023/10/12 10:43:44;;;;;;;11.73;2.63;;;21.30;92.10;;;;;;5050981;28;20041;-66
2023/10/12 10:46:10;;;;;;;10.77;2.45;;;21.10;92.10;;;;;;5047308;28;20457;-66
2023/10/12 10:48:38;;;;;;;14.88;2.50;;;21.40;91.00;;;;;;5039418;28;20037;-66
2023/10/12 10:51:10;;;;;;;13.55;2.72;;;21.10;90.90;;;;;;5046597;28;20053;-66
2023/10/12 10:53:39;;;;;;;;;;;21.50;91.00;;;;;;5018367;28;20050;-66
2023/10/12 10:56:15;;;;;;;10.10;2.30;;;21.40;90.90;;;;;;5039762;28;19921;-66
2023/10/12 10:58:41;;;;;;;11.93;2.60;;;21.80;91.10;;;;;;5036787;28;20179;-67
2023/10/12 11:01:12;;;;;;;12.02;2.60;;;21.60;90.90;;;;;;5042623;28;20046;-67
2023/10/12 11:03:39;;;;;;;9.05;2.35;;;21.70;91.60;;;;;;5044017;28;20057;-66
2023/10/12 11:06:21;;;;;;;9.80;2.40;;;21.60;92.00;;;;;;5046437;28;20053;-67
2023/10/12 11:09:07;;;;;;;8.35;2.22;;;21.70;90.10;;;;;;5048170;28;20521;-66
2023/10/12 11:11:44;;;;;;;10.98;2.38;;;21.70;91.60;;;;;;5042950;28;20159;-66
2023/10/12 11:14:12;;;;;;;9.50;2.70;;;21.60;90.10;;;;;;5048632;28;20398;-69
2023/10/12 11:16:38;;;;;;;10.38;2.35;;;21.70;90.30;;;;;;5039272;28;20045;-66
2023/10/12 11:19:09;;;;;;;10.35;2.38;;;22.00;90.70;;;;;;5020655;28;20044;-66
2023/10/12 11:21:35;;;;;;;7.88;2.30;;;22.00;90.00;;;;;;5028332;28;20049;-69
2023/10/12 11:24:09;;;;;;;7.72;2.38;;;22.20;89.10;;;;;;5059098;28;20045;-66
2023/10/12 11:26:52;;;;;;;9.05;2.20;;;21.80;87.50;;;;;;5034048;28;20444;-66
2023/10/12 11:29:18;;;;;;;8.90;2.33;;;22.20;90.80;;;;;;5037058;28;20053;-67
2023/10/12 11:32:03;;;;;;;8.40;2.17;;;22.40;90.30;;;;;;5038802;28;20044;-70
2023/10/12 11:34:33;;;;;;;8.40;2.35;;;22.20;90.20;;;;;;5045128;28;20102;-70
2023/10/12 11:36:59;;;;;;;9.90;2.25;;;22.50;89.20;;;;;;5047246;28;20459;-69
2023/10/12 11:39:28;;;;;;;9.57;2.80;;;22.40;88.30;;;;;;5044813;28;20141;-66
2023/10/12 11:42:07;;;;;;;9.75;2.53;;;22.30;89.40;;;;;;5038868;28;20485;-66
2023/10/12 11:44:43;;;;;;;8.43;2.38;;;22.40;87.80;;;;;;5041409;28;20055;-66
2023/10/12 11:47:10;;;;;;;9.13;2.63;;;22.40;87.80;;;;;;5045503;28;20073;-66
2023/10/12 11:49:48;;;;;;;8.35;2.53;;;22.30;87.30;;;;;;5056696;28;20037;-67
2023/10/12 11:52:21;;;;;;;10.30;2.20;;;22.50;87.10;;;;;;5033209;28;20056;-68
2023/10/12 11:54:48;;;;;;;15.93;2.72;;;22.10;86.90;;;;;;5040994;28;20107;-68
2023/10/12 11:57:14;;;;;;;10.40;2.53;;;22.10;86.40;;;;;;5042561;28;20052;-67
2023/10/12 11:59:42;;;;;;;11.02;2.80;;;22.00;88.80;;;;;;5039343;28;20091;-68
2023/10/12 12:02:16;;;;;;;10.55;2.42;;;22.00;86.50;;;;;;5031438;28;20048;-68
2023/10/12 12:04:43;;;;;;;8.15;2.47;;;22.00;88.20;;;;;;5032723;28;20048;-66
2023/10/12 12:07:10;;;;;;;8.52;2.22;;;22.00;86.30;;;;;;5042782;28;20604;-67
2023/10/12 12:09:48;;;;;;;8.88;2.40;;;21.60;88.30;;;;;;5037152;28;20049;-66
2023/10/12 12:12:16;;;;;;;6.88;2.10;;;21.80;85.20;;;;;;5043984;28;20045;-67
2023/10/12 12:14:48;;;;;;;39.67;10.90;;;21.90;87.10;;;;;;5039536;28;20060;-67
2023/10/12 12:17:16;;;;;;;47.17;12.48;;;22.20;88.50;;;;;;5041882;28;20755;-67
2023/10/12 12:19:42;;;;;;;113.38;27.80;;;22.10;89.20;;;;;;5042352;28;20490;-69
2023/10/12 12:22:10;;;;;;;61.03;15.68;;;21.70;86.60;;;;;;5034123;28;20045;-67
2023/10/12 12:24:44;;;;;;;60.47;15.10;;;22.20;86.80;;;;;;5042525;28;20453;-68
2023/10/12 12:27:37;;;;;;;51.00;12.73;;;21.90;86.80;;;;;;5052492;28;20041;-67
2023/10/12 12:29:57;;;;;;;41.80;10.43;;;21.80;86.60;;;;;;5052947;28;20045;-67
2023/10/12 12:32:26;;;;;;;36.17;10.40;;;21.70;86.30;;;;;;5042202;28;20052;-67
2023/10/12 12:34:54;;;;;;;37.13;9.27;;;21.80;89.60;;;;;;5044904;28;20486;-67
2023/10/12 12:37:22;;;;;;;29.00;8.27;;;22.00;86.80;;;;;;5036978;28;20037;-66
2023/10/12 12:40:21;;;;;;;24.67;7.70;;;21.80;86.90;;;;;;5038078;28;20049;-68
2023/10/12 12:42:37;;;;;;;23.02;8.18;;;21.70;87.00;;;;;;5042671;28;20037;-68
2023/10/12 12:45:03;;;;;;;19.48;6.03;;;21.60;89.50;;;;;;5035235;28;20037;-67
2023/10/12 12:47:32;;;;;;;23.58;6.20;;;21.70;86.70;;;;;;5046637;28;20426;-67
2023/10/12 12:50:02;;;;;;;22.27;5.15;;;21.40;89.40;;;;;;5024357;28;20131;-66
2023/10/12 12:52:28;;;;;;;16.33;4.70;;;21.30;87.20;;;;;;5036043;28;20385;-66
2023/10/12 12:54:55;;;;;;;17.08;4.65;;;21.50;89.70;;;;;;5040571;28;20045;-68
2023/10/12 12:57:23;;;;;;;14.80;4.13;;;21.60;87.50;;;;;;5043036;28;20430;-66
2023/10/12 12:59:49;;;;;;;15.65;4.18;;;21.50;89.30;;;;;;5041582;28;20036;-67
2023/10/12 13:02:14;;;;;;;14.48;4.07;;;21.60;89.90;;;;;;5039700;28;20055;-66
2023/10/12 13:04:40;;;;;;;10.32;3.22;;;21.80;87.60;;;;;;5030424;28;20487;-67
2023/10/12 13:07:09;;;;;;;14.95;3.83;;;21.40;89.80;;;;;;5040606;28;20495;-66
2023/10/12 13:09:36;;;;;;;18.10;4.18;;;21.60;86.70;;;;;;5046319;28;20061;-68
2023/10/12 13:12:06;;;;;;;16.63;4.10;;;21.70;86.90;;;;;;5035838;28;20045;-69
2023/10/12 13:14:32;;;;;;;19.75;3.28;;;21.30;87.50;;;;;;5036759;28;20049;-67
2023/10/12 13:16:58;;;;;;;15.93;3.80;;;21.30;89.20;;;;;;5050231;28;20045;-66
2023/10/12 13:19:24;;;;;;;13.27;3.40;;;21.50;90.10;;;;;;5036066;28;20052;-66
2023/10/12 13:21:50;;;;;;;12.00;3.17;;;21.30;89.60;;;;;;5045165;28;20085;-65
2023/10/12 13:24:16;;;;;;;11.23;2.70;;;21.40;87.50;;;;;;5053196;28;20064;-65
2023/10/12 13:26:45;;;;;;;9.95;2.80;;;21.20;89.50;;;;;;5039428;28;20045;-68
2023/10/12 13:29:12;;;;;;;12.32;2.80;;;21.40;89.50;;;;;;5054459;28;20053;-66
2023/10/12 13:31:38;;;;;;;11.48;2.95;;;21.20;90.00;;;;;;5037555;28;20396;-66
2023/10/12 13:34:05;;;;;;;12.45;3.10;;;21.10;87.10;;;;;;5034456;28;20045;-66
2023/10/12 13:36:34;;;;;;;11.05;2.55;;;21.00;87.60;;;;;;5046512;28;20061;-66
2023/10/12 13:39:02;;;;;;;11.90;2.67;;;21.20;90.50;;;;;;5052778;28;20045;-66
2023/10/12 13:41:30;;;;;;;10.02;2.70;;;21.10;87.80;;;;;;5040613;28;20125;-67
2023/10/12 13:43:56;;;;;;;11.57;2.97;;;21.30;89.70;;;;;;5054829;28;20099;-68
2023/10/12 13:46:22;;;;;;;9.73;2.40;;;21.30;88.20;;;;;;5051413;28;20486;-69
2023/10/12 13:48:49;;;;;;;15.00;3.38;;;21.00;87.80;;;;;;5054411;28;20049;-68
2023/10/12 13:51:20;;;;;;;10.07;2.70;;;21.10;89.40;;;;;;5051931;28;20049;-66
2023/10/12 13:53:46;;;;;;;12.13;2.47;;;;;;;;;;5049624;28;20385;-68
2023/10/12 13:56:12;;;;;;;9.13;2.50;;;20.70;89.70;;;;;;5051795;28;20049;-69
2023/10/12 13:58:39;;;;;;;8.75;2.53;;;20.90;89.00;;;;;;5044432;28;20040;-68
2023/10/12 14:01:13;;;;;;;10.25;2.40;;;;;;;;;;5043924;28;20041;-67
2023/10/12 14:03:41;;;;;;;10.23;2.67;;;21.00;89.50;;;;;;5043016;28;20053;-68
2023/10/12 14:06:07;;;;;;;10.18;3.15;;;21.10;89.80;;;;;;5046863;28;20056;-67
2023/10/12 14:08:40;;;;;;;10.02;2.80;;;21.70;88.20;;;;;;5048649;28;20119;-68
2023/10/12 14:11:06;;;;;;;;;;;20.80;87.20;;;;;;5039848;28;20567;-66
2023/10/12 14:13:35;;;;;;;11.55;2.33;;;21.00;89.30;;;;;;5036179;28;19924;-68
2023/10/12 14:16:01;;;;;;;14.38;2.40;;;21.00;89.50;;;;;;5036196;28;20034;-69
2023/10/12 14:18:31;;;;;;;14.43;2.72;;;21.10;89.50;;;;;;5038720;28;20861;-68
2023/10/12 14:20:57;;;;;;;11.30;2.42;;;21.00;89.00;;;;;;5023938;28;20076;-68
2023/10/12 14:23:26;;;;;;;7.30;2.38;;;20.90;88.50;;;;;;5056380;28;20418;-68
2023/10/12 14:25:54;;;;;;;9.50;2.20;;;21.10;88.70;;;;;;5043312;28;20048;-66
2023/10/12 14:28:20;;;;;;;8.40;2.67;;;20.80;88.50;;;;;;5046399;28;20037;-66
2023/10/12 14:30:47;;;;;;;8.98;2.58;;;21.00;88.60;;;;;;5046645;28;20076;-66
2023/10/12 14:33:15;;;;;;;11.20;2.50;;;21.00;87.70;;;;;;5042379;28;20056;-66
2023/10/12 14:35:41;;;;;;;9.88;3.03;;;20.90;87.70;;;;;;5041724;28;20041;-66
2023/10/12 14:38:08;;;;;;;9.07;2.60;;;21.00;88.10;;;;;;5039811;28;20046;-66
2023/10/12 14:40:35;;;;;;;9.98;2.30;;;20.90;88.10;;;;;;5040530;28;20057;-69